Time;durP1;ratioP1;P1;durP2;ratioP2;P2;SDS_P1;SDS_P2;PMS_P1;PMS_P2;Temp;Humidity;BMP_temperature;BMP_pressure;BME280_temperature;BME280_humidity;BME280_pressure;Samples;Min_cycle;Max_cycle;Signal;HPM_P1;HPM_P2
2023/05/10 00:02:09;;;;;;;4.17;2.53;;;14.20;75.70;;;;;;5075171;28;20579;-54
2023/05/10 00:04:36;;;;;;;3.17;2.60;;;14.20;78.20;;;;;;5086059;28;20380;-53
2023/05/10 00:07:03;;;;;;;2.60;2.40;;;13.50;86.60;;;;;;5073714;28;20198;-53
2023/05/10 00:09:30;;;;;;;3.50;2.53;;;14.10;76.90;;;;;;5084464;28;20319;-46
2023/05/10 00:11:58;;;;;;;3.93;2.73;;;14.10;77.20;;;;;;5076984;28;20266;-54
2023/05/10 00:14:27;;;;;;;4.43;2.70;;;14.10;77.60;;;;;;5064925;28;20939;-48
2023/05/10 00:16:55;;;;;;;5.20;2.73;;;14.10;77.80;;;;;;5079716;28;20202;-52
2023/05/10 00:19:21;;;;;;;3.63;2.70;;;14.00;78.10;;;;;;5081825;28;20218;-50
2023/05/10 00:21:48;;;;;;;4.73;2.70;;;14.00;78.40;;;;;;5065807;28;20222;-51
2023/05/10 00:24:15;;;;;;;2.87;2.57;;;14.00;78.80;;;;;;5081210;28;20185;-49
2023/05/10 00:26:42;;;;;;;3.50;2.73;;;14.00;79.10;;;;;;5077382;28;20827;-52
2023/05/10 00:29:09;;;;;;;3.77;2.87;;;13.90;79.30;;;;;;5058665;28;20225;-54
2023/05/10 00:31:38;;;;;;;3.67;2.53;;;13.90;81.80;;;;;;5078459;28;20205;-47
2023/05/10 00:34:05;;;;;;;3.70;2.80;;;13.90;80.00;;;;;;5082898;28;20196;-54
2023/05/10 00:36:32;;;;;;;3.67;2.70;;;13.90;80.20;;;;;;5069187;28;20320;-53
2023/05/10 00:39:00;;;;;;;2.83;2.50;;;13.90;96.60;;;;;;5080501;28;20214;-54
2023/05/10 00:41:29;;;;;;;4.87;2.63;;;;;;;;;;5073438;28;20214;-51
2023/05/10 00:44:19;;;;;;;6.10;3.00;;;;;;;;;;5061224;28;20213;-52
2023/05/10 00:46:48;;;;;;;3.17;2.77;;;13.90;96.30;;;;;;5083190;28;20248;-51
2023/05/10 00:49:15;;;;;;;3.00;2.70;;;13.90;96.30;;;;;;5080460;28;20831;-48
2023/05/10 00:51:44;;;;;;;3.30;2.90;;;13.80;97.50;;;;;;5084954;28;20182;-50
2023/05/10 00:54:14;;;;;;;4.13;2.93;;;13.70;86.30;;;;;;5061742;28;20289;-54
2023/05/10 00:56:43;;;;;;;4.23;2.70;;;13.70;99.90;;;;;;5078045;28;20194;-47
2023/05/10 00:59:10;;;;;;;5.30;2.87;;;13.70;99.90;;;;;;5051223;28;20583;-51
2023/05/10 01:01:38;;;;;;;3.50;2.93;;;13.60;99.90;;;;;;5083032;28;20267;-49
2023/05/10 01:04:08;;;;;;;6.63;2.93;;;13.60;91.90;;;;;;5082474;28;20532;-54
2023/05/10 01:06:36;;;;;;;3.90;2.30;;;13.60;92.00;;;;;;5075609;28;20313;-49
2023/05/10 01:09:03;;;;;;;3.10;2.90;;;13.50;85.20;;;;;;5063716;28;20831;-55
2023/05/10 01:11:30;;;;;;;3.70;2.70;;;13.50;85.40;;;;;;5078645;28;20369;-55
2023/05/10 01:13:58;;;;;;;3.60;3.10;;;13.50;85.60;;;;;;5057037;28;20970;-50
2023/05/10 01:16:49;;;;;;;2.90;2.70;;;13.50;86.20;;;;;;5072651;28;20418;-49
2023/05/10 01:19:22;;;;;;;4.47;2.60;;;13.40;86.20;;;;;;5023026;28;1589431;-51
2023/05/10 01:21:58;;;;;;;2.97;2.50;;;13.40;86.80;;;;;;5067127;28;20219;-51
2023/05/10 01:24:51;;;;;;;3.77;2.63;;;13.30;87.50;;;;;;5054637;28;20197;-48
2023/05/10 01:27:26;;;;;;;3.90;2.80;;;13.30;88.50;;;;;;5081285;28;20197;-49
2023/05/10 01:30:09;;;;;;;3.60;2.70;;;13.20;88.80;;;;;;5064760;28;20308;-50
2023/05/10 01:32:44;;;;;;;6.83;2.63;;;13.20;90.00;;;;;;5083320;28;20904;-47
2023/05/10 01:35:18;;;;;;;2.63;2.43;;;13.20;89.90;;;;;;5073573;28;20974;-51
2023/05/10 01:37:51;;;;;;;4.60;2.83;;;13.10;90.20;;;;;;5077684;28;20225;-52
2023/05/10 01:40:23;;;;;;;3.07;2.77;;;13.10;90.40;;;;;;5068832;28;20228;-54
2023/05/10 01:42:54;;;;;;;3.33;3.03;;;13.10;90.50;;;;;;5084742;28;20210;-50
2023/05/10 01:45:29;;;;;;;3.37;2.73;;;13.10;90.70;;;;;;5061312;28;20207;-49
2023/05/10 01:48:07;;;;;;;3.03;2.83;;;13.10;90.90;;;;;;5076458;28;20197;-54
2023/05/10 01:50:36;;;;;;;3.40;3.10;;;13.00;91.10;;;;;;5068454;28;20189;-52
2023/05/10 01:53:08;;;;;;;4.97;2.70;;;13.00;91.40;;;;;;5067169;28;20194;-53
2023/05/10 01:55:40;;;;;;;3.43;3.17;;;13.00;91.70;;;;;;5073050;28;20198;-48
2023/05/10 01:58:10;;;;;;;4.17;3.00;;;12.90;92.00;;;;;;5081026;28;20652;-53
2023/05/10 02:00:43;;;;;;;3.43;2.87;;;12.90;92.30;;;;;;5053257;28;20297;-51
2023/05/10 02:03:16;;;;;;;3.37;3.07;;;12.90;92.50;;;;;;5071602;28;20235;-52
2023/05/10 02:05:46;;;;;;;2.97;2.77;;;12.90;92.80;;;;;;5069983;28;20190;-49
2023/05/10 02:08:15;;;;;;;4.07;2.90;;;12.80;92.90;;;;;;5073989;28;20220;-51
2023/05/10 02:10:44;;;;;;;6.17;3.17;;;12.80;93.30;;;;;;5073538;28;20225;-55
2023/05/10 02:13:12;;;;;;;2.90;2.70;;;12.80;93.60;;;;;;5080447;28;20185;-56
2023/05/10 02:15:40;;;;;;;5.23;2.43;;;12.70;94.00;;;;;;5078792;28;20234;-53
2023/05/10 02:18:10;;;;;;;3.87;2.80;;;12.70;94.20;;;;;;5051754;28;20213;-55
2023/05/10 02:20:39;;;;;;;6.40;2.80;;;12.70;94.50;;;;;;5079013;28;20201;-48
2023/05/10 02:23:08;;;;;;;7.53;3.07;;;12.60;94.80;;;;;;5077487;28;20205;-51
2023/05/10 02:25:38;;;;;;;3.10;2.83;;;12.60;99.90;;;;;;5071576;28;20695;-48
2023/05/10 02:28:07;;;;;;;3.80;2.63;;;12.60;95.60;;;;;;5080821;28;20190;-55
2023/05/10 02:30:36;;;;;;;3.00;2.80;;;12.50;95.90;;;;;;5077477;28;20192;-53
2023/05/10 02:33:06;;;;;;;3.90;3.10;;;12.50;96.20;;;;;;5055855;28;20197;-54
2023/05/10 02:35:34;;;;;;;4.43;2.70;;;12.50;96.60;;;;;;5082058;28;20272;-49
2023/05/10 02:38:04;;;;;;;3.80;2.83;;;12.50;96.70;;;;;;5081578;28;20610;-53
2023/05/10 02:40:34;;;;;;;4.00;3.40;;;12.50;96.80;;;;;;5077056;28;20202;-48
2023/05/10 02:43:03;;;;;;;2.97;2.70;;;12.40;97.10;;;;;;5068918;28;20263;-54
2023/05/10 02:45:33;;;;;;;4.40;3.07;;;12.40;97.50;;;;;;5072643;28;20193;-54
2023/05/10 02:48:01;;;;;;;5.37;2.80;;;12.30;97.80;;;;;;5058014;28;20286;-55
2023/05/10 02:50:30;;;;;;;2.93;2.73;;;12.30;98.00;;;;;;5080702;28;20186;-49
2023/05/10 02:53:02;;;;;;;3.27;2.60;;;12.30;98.10;;;;;;5082899;28;20190;-53
2023/05/10 02:55:36;;;;;;;4.40;3.10;;;12.30;98.30;;;;;;5074324;28;20208;-52
2023/05/10 02:58:03;;;;;;;3.50;3.03;;;12.30;98.40;;;;;;5063770;28;20206;-54
2023/05/10 03:00:30;;;;;;;4.23;2.87;;;12.30;98.80;;;;;;5073473;28;20275;-52
2023/05/10 03:02:57;;;;;;;5.60;2.70;;;12.20;99.00;;;;;;5063539;28;20217;-52
2023/05/10 03:05:26;;;;;;;6.73;3.20;;;12.20;99.20;;;;;;5079054;28;20182;-48
2023/05/10 03:07:54;;;;;;;2.97;2.63;;;12.10;99.40;;;;;;5081588;28;20580;-53
2023/05/10 03:10:23;;;;;;;3.47;3.17;;;12.10;99.70;;;;;;5063331;28;20230;-48
2023/05/10 03:13:05;;;;;;;4.13;2.80;;;12.10;99.90;;;;;;5060703;28;20205;-48
2023/05/10 03:15:38;;;;;;;4.93;3.57;;;12.10;99.90;;;;;;5073530;28;20194;-49
2023/05/10 03:18:10;;;;;;;4.50;2.97;;;12.10;99.90;;;;;;5049571;28;20295;-50
2023/05/10 03:20:42;;;;;;;3.63;2.83;;;12.00;99.90;;;;;;5071496;28;20214;-54
2023/05/10 03:23:19;;;;;;;3.80;2.83;;;12.00;99.90;;;;;;5080691;28;20222;-49
2023/05/10 03:25:48;;;;;;;3.37;2.73;;;12.00;99.90;;;;;;5067881;28;20194;-54
2023/05/10 03:28:19;;;;;;;4.37;3.33;;;12.00;99.90;;;;;;5063250;28;20214;-49
2023/05/10 03:30:47;;;;;;;3.20;3.00;;;12.00;99.90;;;;;;5071093;28;20198;-54
2023/05/10 03:33:14;;;;;;;3.50;3.20;;;12.00;99.90;;;;;;5063712;28;20198;-49
2023/05/10 03:35:45;;;;;;;3.70;2.97;;;12.00;99.90;;;;;;5077870;28;20197;-54
2023/05/10 03:38:14;;;;;;;3.37;2.83;;;12.00;99.90;;;;;;5081965;28;20194;-50
2023/05/10 03:40:41;;;;;;;5.33;3.20;;;12.00;99.90;;;;;;5069206;28;20222;-54
2023/05/10 03:43:08;;;;;;;4.03;2.87;;;12.00;99.90;;;;;;5074945;28;20835;-52
2023/05/10 03:45:36;;;;;;;3.53;3.10;;;11.90;99.90;;;;;;5081962;28;20551;-54
2023/05/10 03:48:04;;;;;;;3.47;3.10;;;12.00;99.90;;;;;;5059878;28;20221;-48
2023/05/10 03:50:31;;;;;;;3.77;3.40;;;11.90;99.90;;;;;;5081820;28;20198;-51
2023/05/10 03:52:58;;;;;;;3.23;3.00;;;12.00;99.90;;;;;;5075752;28;20266;-53
2023/05/10 03:55:25;;;;;;;7.10;3.60;;;11.90;99.90;;;;;;5073572;28;20205;-53
2023/05/10 03:57:53;;;;;;;4.63;3.20;;;11.90;99.90;;;;;;5066326;28;20207;-50
2023/05/10 04:00:22;;;;;;;5.53;2.70;;;12.00;99.90;;;;;;5080744;28;20194;-52
2023/05/10 04:02:53;;;;;;;3.07;2.87;;;11.90;99.90;;;;;;5050021;28;20747;-52
2023/05/10 04:05:20;;;;;;;5.57;3.00;;;11.90;99.90;;;;;;5088121;28;20190;-53
2023/05/10 04:07:49;;;;;;;3.00;2.70;;;11.90;99.90;;;;;;5066174;28;20285;-52
2023/05/10 04:10:17;;;;;;;3.50;2.80;;;11.90;99.90;;;;;;5076014;28;20275;-49
2023/05/10 04:12:44;;;;;;;3.40;3.10;;;11.90;99.90;;;;;;5066747;28;20201;-54
2023/05/10 04:15:11;;;;;;;3.27;2.97;;;11.90;99.90;;;;;;5080780;28;20212;-55
2023/05/10 04:17:38;;;;;;;3.47;3.17;;;11.90;99.90;;;;;;5073734;28;20942;-48
2023/05/10 04:20:08;;;;;;;6.10;3.57;;;11.90;99.90;;;;;;5059206;28;20225;-54
2023/05/10 04:22:35;;;;;;;4.40;3.30;;;11.90;99.90;;;;;;5061905;28;20213;-52
2023/05/10 04:25:01;;;;;;;4.00;3.07;;;12.00;99.90;;;;;;5074960;28;20201;-51
2023/05/10 04:27:28;;;;;;;4.57;3.70;;;11.90;99.90;;;;;;5077070;28;20210;-51
2023/05/10 04:29:55;;;;;;;3.57;3.27;;;11.90;99.90;;;;;;5071197;28;20588;-51
2023/05/10 04:32:22;;;;;;;5.03;2.83;;;12.00;99.90;;;;;;5075469;28;20206;-48
2023/05/10 04:34:50;;;;;;;2.90;2.70;;;12.00;99.90;;;;;;5062846;28;20190;-53
2023/05/10 04:37:19;;;;;;;5.83;3.60;;;12.00;99.90;;;;;;5069344;28;20287;-48
2023/05/10 04:39:46;;;;;;;3.80;3.50;;;11.90;99.90;;;;;;5068928;28;20215;-53
2023/05/10 04:42:14;;;;;;;4.37;3.27;;;12.00;99.90;;;;;;5081470;28;20218;-54
2023/05/10 04:44:41;;;;;;;3.70;3.13;;;12.00;99.90;;;;;;5068671;28;20559;-52
2023/05/10 04:47:08;;;;;;;3.90;3.53;;;12.00;99.90;;;;;;5071403;28;20194;-48
2023/05/10 04:49:35;;;;;;;3.37;3.00;;;12.00;99.90;;;;;;5068602;28;20591;-50
2023/05/10 04:52:02;;;;;;;4.53;3.00;;;12.00;99.90;;;;;;5047499;28;20194;-51
2023/05/10 04:54:30;;;;;;;3.70;3.27;;;12.00;99.90;;;;;;5074583;28;20209;-55
2023/05/10 04:56:57;;;;;;;3.30;3.10;;;12.10;99.90;;;;;;5085485;28;20207;-53
2023/05/10 04:59:24;;;;;;;3.53;3.27;;;12.10;99.90;;;;;;5065572;28;20218;-48
2023/05/10 05:01:51;;;;;;;3.33;3.03;;;12.10;99.90;;;;;;5082946;28;20219;-53
2023/05/10 05:04:18;;;;;;;5.07;3.50;;;12.20;99.90;;;;;;5067005;28;20222;-50
2023/05/10 05:06:45;;;;;;;6.90;3.10;;;12.20;99.90;;;;;;5058961;28;20205;-54
2023/05/10 05:09:12;;;;;;;4.20;2.97;;;12.20;99.90;;;;;;5074580;28;20253;-48
2023/05/10 05:11:40;;;;;;;4.07;3.40;;;12.30;99.90;;;;;;5070570;28;20201;-49
2023/05/10 05:14:07;;;;;;;7.57;3.57;;;12.30;99.90;;;;;;5061820;28;20205;-48
2023/05/10 05:16:34;;;;;;;3.73;3.30;;;12.40;99.90;;;;;;5078806;28;20664;-52
2023/05/10 05:19:01;;;;;;;12.80;3.50;;;12.40;99.90;;;;;;5065661;28;20297;-52
2023/05/10 05:21:29;;;;;;;3.40;3.10;;;12.50;99.90;;;;;;5077824;28;20206;-52
2023/05/10 05:23:56;;;;;;;4.47;3.20;;;12.60;99.90;;;;;;5057876;28;20222;-54
2023/05/10 05:26:22;;;;;;;4.63;3.57;;;12.60;99.90;;;;;;5075803;28;20542;-49
2023/05/10 05:28:53;;;;;;;4.10;3.10;;;12.70;99.90;;;;;;5080212;28;20249;-54
2023/05/10 05:31:21;;;;;;;4.33;3.93;;;12.70;99.90;;;;;;5056276;28;20194;-52
2023/05/10 05:33:48;;;;;;;5.43;3.43;;;12.80;99.90;;;;;;5070068;28;20240;-55
2023/05/10 05:36:15;;;;;;;3.40;3.10;;;12.80;99.90;;;;;;5073385;28;20735;-50
2023/05/10 05:38:43;;;;;;;3.77;3.03;;;12.90;99.90;;;;;;5064068;28;20692;-54
2023/05/10 05:41:09;;;;;;;3.90;3.27;;;12.90;99.90;;;;;;5066768;28;20198;-50
2023/05/10 05:43:37;;;;;;;3.93;3.30;;;13.00;99.90;;;;;;5074701;28;20230;-52
2023/05/10 05:46:06;;;;;;;5.97;3.07;;;13.10;99.90;;;;;;5057997;28;20214;-53
2023/05/10 05:48:34;;;;;;;6.53;3.73;;;13.10;99.90;;;;;;5065318;28;20296;-49
2023/05/10 05:51:00;;;;;;;5.83;3.40;;;13.20;99.90;;;;;;5076037;28;20251;-52
2023/05/10 05:53:27;;;;;;;6.20;3.20;;;13.30;99.90;;;;;;5058779;28;20198;-52
2023/05/10 05:55:54;;;;;;;4.83;3.07;;;13.30;99.90;;;;;;5073294;28;20652;-54
2023/05/10 05:58:21;;;;;;;4.23;2.83;;;13.40;99.90;;;;;;5067402;28;20251;-55
2023/05/10 06:00:49;;;;;;;4.13;3.73;;;13.50;99.90;;;;;;5081692;28;20208;-54
2023/05/10 06:03:17;;;;;;;4.33;3.23;;;13.60;99.90;;;;;;5072923;28;20206;-49
2023/05/10 06:05:43;;;;;;;5.57;3.83;;;13.60;99.90;;;;;;5076601;28;20189;-51
2023/05/10 06:08:10;;;;;;;4.23;3.30;;;13.80;99.90;;;;;;5073273;28;20198;-52
2023/05/10 06:10:37;;;;;;;4.17;3.87;;;13.90;99.90;;;;;;5063883;28;20198;-52
2023/05/10 06:13:05;;;;;;;4.10;3.43;;;13.90;99.90;;;;;;5061008;28;20285;-55
2023/05/10 06:15:32;;;;;;;4.23;3.57;;;14.00;99.90;;;;;;5080272;28;20190;-47
2023/05/10 06:17:59;;;;;;;4.23;3.23;;;14.00;99.90;;;;;;5063502;28;21005;-53
2023/05/10 06:20:27;;;;;;;3.43;3.10;;;14.10;99.90;;;;;;5082170;28;20598;-50
2023/05/10 06:22:53;;;;;;;3.43;3.10;;;14.20;99.90;;;;;;5079193;28;20218;-51
2023/05/10 06:25:21;;;;;;;4.17;3.20;;;14.30;99.90;;;;;;5060601;28;20213;-52
2023/05/10 06:27:48;;;;;;;5.40;3.73;;;14.30;99.70;;;;;;5069502;28;20223;-51
2023/05/10 06:30:15;;;;;;;3.83;3.43;;;14.40;99.40;;;;;;5075520;28;20214;-50
2023/05/10 06:32:44;;;;;;;4.50;3.27;;;14.50;99.60;;;;;;5082141;28;20194;-55
2023/05/10 06:35:12;;;;;;;3.50;3.20;;;14.60;99.30;;;;;;5072679;28;20205;-49
2023/05/10 06:37:41;;;;;;;3.87;3.27;;;14.70;99.10;;;;;;5083681;28;20196;-47
2023/05/10 06:40:30;;;;;;;4.57;3.20;;;14.80;99.20;;;;;;5054667;28;20365;-52
2023/05/10 06:42:57;;;;;;;3.80;3.50;;;14.80;98.80;;;;;;5068109;28;20214;-55
2023/05/10 06:45:46;;;;;;;3.40;3.07;;;14.70;98.60;;;;;;5071402;28;20217;-52
2023/05/10 06:48:13;;;;;;;5.03;3.80;;;14.70;98.80;;;;;;5070979;28;20197;-48
2023/05/10 06:50:40;;;;;;;4.47;3.33;;;14.80;98.80;;;;;;5064058;28;20672;-52
2023/05/10 06:53:08;;;;;;;5.63;2.97;;;14.80;98.50;;;;;;5071129;28;20934;-51
2023/05/10 06:55:35;;;;;;;3.73;2.83;;;14.90;98.60;;;;;;5053073;28;20242;-55
2023/05/10 06:58:01;;;;;;;3.60;3.37;;;15.00;98.50;;;;;;5065983;28;20197;-49
2023/05/10 07:00:29;;;;;;;4.33;3.43;;;15.10;98.30;;;;;;5073206;28;20186;-53
2023/05/10 07:02:56;;;;;;;4.70;3.43;;;15.20;98.30;;;;;;5075151;28;20229;-52
2023/05/10 07:05:22;;;;;;;4.70;3.20;;;15.20;98.00;;;;;;5065607;28;20243;-46
2023/05/10 07:07:49;;;;;;;3.77;3.30;;;15.20;98.00;;;;;;5066612;28;20178;-52
2023/05/10 07:10:17;;;;;;;5.23;3.37;;;15.30;98.30;;;;;;5069963;28;20389;-46
2023/05/10 07:12:44;;;;;;;4.63;3.00;;;15.40;98.40;;;;;;5056577;28;20202;-50
2023/05/10 07:15:12;;;;;;;4.10;3.70;;;15.30;99.30;;;;;;5082152;28;20194;-50
2023/05/10 07:17:38;;;;;;;3.50;3.17;;;15.40;99.90;;;;;;5073258;28;20206;-51
2023/05/10 07:20:06;;;;;;;4.80;3.73;;;15.50;97.90;;;;;;5068919;28;20229;-50
2023/05/10 07:22:33;;;;;;;8.40;3.37;;;15.40;97.90;;;;;;5070451;28;20592;-52
2023/05/10 07:25:00;;;;;;;6.73;3.70;;;15.50;97.70;;;;;;5067189;28;20218;-54
2023/05/10 07:27:28;;;;;;;3.83;3.07;;;15.50;97.40;;;;;;5078986;28;20190;-51
2023/05/10 07:29:56;;;;;;;6.37;3.73;;;15.60;97.40;;;;;;5070834;28;20297;-52
2023/05/10 07:32:23;;;;;;;4.97;3.47;;;15.60;97.10;;;;;;5075195;28;20197;-52
2023/05/10 07:34:49;;;;;;;3.50;3.20;;;15.60;97.30;;;;;;5066971;28;20212;-55
2023/05/10 07:37:16;;;;;;;4.50;3.57;;;15.70;96.90;;;;;;5068409;28;20201;-51
2023/05/10 07:39:43;;;;;;;3.30;3.00;;;15.70;97.00;;;;;;5070494;28;20210;-54
2023/05/10 07:42:09;;;;;;;5.40;3.50;;;15.80;97.40;;;;;;5083418;28;20553;-53
2023/05/10 07:44:37;;;;;;;3.83;3.20;;;15.80;96.90;;;;;;5066299;28;20297;-50
2023/05/10 07:47:04;;;;;;;3.80;3.20;;;15.80;97.00;;;;;;5076022;28;20198;-55
2023/05/10 07:49:31;;;;;;;3.50;3.20;;;15.80;96.90;;;;;;5070517;28;20236;-53
2023/05/10 07:51:57;;;;;;;3.93;3.13;;;15.80;96.70;;;;;;5064690;28;21349;-53
2023/05/10 07:54:24;;;;;;;5.60;3.30;;;15.80;96.90;;;;;;5078595;28;20190;-53
2023/05/10 07:56:52;;;;;;;3.93;3.30;;;15.90;96.80;;;;;;5083433;28;20269;-54
2023/05/10 07:59:19;;;;;;;4.53;3.40;;;15.90;96.90;;;;;;5065496;28;20232;-54
2023/05/10 08:01:48;;;;;;;3.50;3.20;;;16.00;96.70;;;;;;5069597;28;20198;-53
2023/05/10 08:04:16;;;;;;;2.73;2.50;;;16.30;96.20;;;;;;5057881;28;20849;-52
2023/05/10 08:06:44;;;;;;;5.23;3.23;;;16.30;96.50;;;;;;5074001;28;20202;-52
2023/05/10 08:09:10;;;;;;;3.40;3.20;;;16.30;96.60;;;;;;5071513;28;20242;-54
2023/05/10 08:11:38;;;;;;;3.83;3.27;;;16.40;96.60;;;;;;5079951;28;20195;-53
2023/05/10 08:14:04;;;;;;;4.07;3.37;;;16.40;96.70;;;;;;5064212;28;21182;-52
2023/05/10 08:16:32;;;;;;;4.03;3.67;;;16.50;96.60;;;;;;5074518;28;20691;-52
2023/05/10 08:19:00;;;;;;;6.07;3.50;;;16.50;96.60;;;;;;5068410;28;20237;-55
2023/05/10 08:21:26;;;;;;;3.80;3.50;;;16.50;96.70;;;;;;5080696;28;20247;-51
2023/05/10 08:23:53;;;;;;;3.83;3.53;;;16.50;96.70;;;;;;5073925;28;20253;-48
2023/05/10 08:26:20;;;;;;;4.57;3.37;;;16.50;96.60;;;;;;5085104;28;20200;-50
2023/05/10 08:28:47;;;;;;;3.73;3.43;;;16.50;96.50;;;;;;5076638;28;20230;-50
2023/05/10 08:31:16;;;;;;;3.30;3.00;;;16.60;96.60;;;;;;5070858;28;20866;-52
2023/05/10 08:33:43;;;;;;;4.33;3.93;;;16.60;96.30;;;;;;5079050;28;20190;-49
2023/05/10 08:36:13;;;;;;;3.57;3.27;;;16.60;96.20;;;;;;5075739;28;20361;-54
2023/05/10 08:38:40;;;;;;;5.90;3.53;;;16.50;96.10;;;;;;5077177;28;20300;-52
2023/05/10 08:41:07;;;;;;;4.33;3.60;;;16.50;96.30;;;;;;5077482;28;20205;-52
2023/05/10 08:43:37;;;;;;;6.30;3.77;;;16.60;96.30;;;;;;5081761;28;20220;-50
2023/05/10 08:46:07;;;;;;;4.33;3.53;;;16.60;96.40;;;;;;5058644;28;20297;-52
2023/05/10 08:48:35;;;;;;;6.93;3.50;;;16.70;96.10;;;;;;5083269;28;20210;-50
2023/05/10 08:51:04;;;;;;;4.53;3.60;;;16.80;96.10;;;;;;5071562;28;21057;-53
2023/05/10 08:53:34;;;;;;;4.00;3.60;;;16.90;96.10;;;;;;5072822;28;20204;-54
2023/05/10 08:56:03;;;;;;;3.83;3.53;;;16.90;95.90;;;;;;5079839;28;20225;-53
2023/05/10 08:58:30;;;;;;;4.70;4.00;;;16.80;95.90;;;;;;5070907;28;20221;-53
2023/05/10 09:00:58;;;;;;;3.67;3.37;;;16.70;95.60;;;;;;5054064;28;20879;-53
2023/05/10 09:03:25;;;;;;;3.87;3.50;;;16.70;95.70;;;;;;5072010;28;20186;-54
2023/05/10 09:05:52;;;;;;;5.20;4.20;;;16.60;95.90;;;;;;5068295;28;20195;-48
2023/05/10 09:08:19;;;;;;;7.27;4.30;;;16.70;96.00;;;;;;5078955;28;20234;-54
2023/05/10 09:10:48;;;;;;;4.57;3.80;;;16.70;95.60;;;;;;5073477;28;20809;-47
2023/05/10 09:13:16;;;;;;;3.60;3.30;;;16.70;95.60;;;;;;5072594;28;20887;-50
2023/05/10 09:15:44;;;;;;;4.93;4.23;;;16.80;95.50;;;;;;5072868;28;20183;-49
2023/05/10 09:18:10;;;;;;;5.30;4.03;;;16.80;95.10;;;;;;5071732;28;20202;-55
2023/05/10 09:20:37;;;;;;;3.83;3.53;;;16.90;95.60;;;;;;5084715;28;20198;-53
2023/05/10 09:23:04;;;;;;;5.87;4.00;;;17.00;95.60;;;;;;5085599;28;20201;-55
2023/05/10 09:25:33;;;;;;;4.87;3.67;;;17.10;95.30;;;;;;5074795;28;20260;-53
2023/05/10 09:28:01;;;;;;;4.13;3.77;;;17.10;95.30;;;;;;5074073;28;20194;-51
2023/05/10 09:30:29;;;;;;;4.27;3.90;;;17.20;95.60;;;;;;5083293;28;20196;-52
2023/05/10 09:32:56;;;;;;;4.13;3.73;;;;;;;;;;5064866;28;20614;-51
2023/05/10 09:35:25;;;;;;;6.30;3.80;;;17.20;95.20;;;;;;5083762;28;20198;-54
2023/05/10 09:37:54;;;;;;;6.40;4.13;;;17.30;95.50;;;;;;5081135;28;20280;-48
2023/05/10 09:40:22;;;;;;;6.13;4.00;;;17.30;95.50;;;;;;5067698;28;20241;-55
2023/05/10 09:42:54;;;;;;;4.57;4.17;;;17.20;95.60;;;;;;5076844;28;20197;-50
2023/05/10 09:45:23;;;;;;;4.40;4.00;;;17.10;95.80;;;;;;5070676;28;20293;-55
2023/05/10 09:47:50;;;;;;;7.20;3.90;;;17.10;95.80;;;;;;5067645;28;20198;-48
2023/05/10 09:50:17;;;;;;;6.63;4.20;;;17.10;95.90;;;;;;5081774;28;20273;-53
2023/05/10 09:52:48;;;;;;;5.13;4.13;;;17.00;96.00;;;;;;5073426;28;20675;-52
2023/05/10 09:55:15;;;;;;;5.10;4.27;;;17.00;96.20;;;;;;5064381;28;20194;-51
2023/05/10 09:57:42;;;;;;;4.83;4.40;;;16.90;96.30;;;;;;5082945;28;21127;-52
2023/05/10 10:00:10;;;;;;;4.70;4.30;;;16.90;96.30;;;;;;5076807;28;20849;-52
2023/05/10 10:02:46;;;;;;;5.47;3.97;;;17.00;96.20;;;;;;5064560;28;20206;-51
2023/05/10 10:05:13;;;;;;;5.90;4.37;;;17.10;96.00;;;;;;5075034;28;20211;-53
2023/05/10 10:07:40;;;;;;;9.23;4.43;;;17.10;96.40;;;;;;5076612;28;20190;-50
2023/05/10 10:10:11;;;;;;;9.80;4.60;;;17.00;96.70;;;;;;5066153;28;20299;-53
2023/05/10 10:12:38;;;;;;;4.70;4.20;;;17.10;96.60;;;;;;5073205;28;20672;-49
2023/05/10 10:15:06;;;;;;;4.93;3.93;;;17.00;96.70;;;;;;5077618;28;20186;-49
2023/05/10 10:17:36;;;;;;;5.40;4.90;;;17.00;97.30;;;;;;5079948;28;20198;-52
2023/05/10 10:20:05;;;;;;;7.10;4.97;;;16.90;97.80;;;;;;5061904;28;20278;-51
2023/05/10 10:22:32;;;;;;;7.27;5.00;;;16.70;98.70;;;;;;5075733;28;20190;-52
2023/05/10 10:24:59;;;;;;;6.90;5.27;;;16.50;99.90;;;;;;5065529;28;20218;-52
2023/05/10 10:27:38;;;;;;;6.67;5.20;;;16.20;99.90;;;;;;5074461;28;20668;-54
2023/05/10 10:30:18;;;;;;;6.17;5.57;;;16.10;99.90;;;;;;5067642;28;20202;-54
2023/05/10 10:33:02;;;;;;;8.47;5.93;;;16.00;99.90;;;;;;5069194;28;20194;-48
2023/05/10 10:35:31;;;;;;;8.00;6.03;;;15.80;99.90;;;;;;5067866;28;20186;-53
2023/05/10 10:37:59;;;;;;;8.67;6.43;;;15.70;99.90;;;;;;5068784;28;20186;-55
2023/05/10 10:40:28;;;;;;;9.03;6.63;;;15.50;99.90;;;;;;5067648;28;20700;-55
2023/05/10 10:42:55;;;;;;;10.13;6.63;;;15.40;99.90;;;;;;5073529;28;20202;-50
2023/05/10 10:45:23;;;;;;;10.60;6.83;;;15.30;99.90;;;;;;5076636;28;20560;-51
2023/05/10 10:48:19;;;;;;;10.20;6.87;;;15.20;99.90;;;;;;5058181;28;20941;-53
2023/05/10 10:50:47;;;;;;;9.30;6.63;;;15.20;99.90;;;;;;5060616;28;20191;-54
2023/05/10 10:53:14;;;;;;;7.63;6.90;;;15.20;99.90;;;;;;5074275;28;20195;-53
2023/05/10 10:55:47;;;;;;;10.27;6.73;;;15.20;99.90;;;;;;5070218;28;20280;-50
2023/05/10 10:58:30;;;;;;;7.90;7.10;;;15.20;99.90;;;;;;5069662;28;20206;-47
2023/05/10 11:01:11;;;;;;;8.23;7.40;;;15.00;99.90;;;;;;5074027;28;20193;-55
2023/05/10 11:03:38;;;;;;;8.33;7.43;;;15.10;99.90;;;;;;5064424;28;20200;-52
2023/05/10 11:06:07;;;;;;;8.83;7.80;;;15.10;99.90;;;;;;5057829;28;20218;-55
2023/05/10 11:08:35;;;;;;;9.33;6.77;;;15.20;99.90;;;;;;5076399;28;20297;-49
2023/05/10 11:11:06;;;;;;;9.07;7.43;;;15.20;99.90;;;;;;5072204;28;20240;-55
2023/05/10 11:13:35;;;;;;;7.70;6.93;;;15.20;99.90;;;;;;5078603;28;20538;-50
2023/05/10 11:16:12;;;;;;;7.80;6.70;;;15.10;99.90;;;;;;5076497;28;20255;-52
2023/05/10 11:18:38;;;;;;;7.63;6.87;;;15.10;99.90;;;;;;5067741;28;20213;-47
2023/05/10 11:21:10;;;;;;;8.17;7.33;;;15.10;99.90;;;;;;5061157;28;20212;-53
2023/05/10 11:23:50;;;;;;;8.17;7.37;;;15.10;99.90;;;;;;5086327;28;20239;-47
2023/05/10 11:26:17;;;;;;;9.03;7.60;;;15.10;99.90;;;;;;5070282;28;20956;-47
2023/05/10 11:28:45;;;;;;;10.77;7.00;;;15.20;99.90;;;;;;5082935;28;20879;-52
2023/05/10 11:31:14;;;;;;;9.47;7.50;;;15.30;99.90;;;;;;5070166;28;20263;-54
2023/05/10 11:33:45;;;;;;;7.80;7.10;;;15.30;99.90;;;;;;5064386;28;20214;-53
2023/05/10 11:36:15;;;;;;;8.03;7.23;;;15.20;99.90;;;;;;5060464;28;20962;-50
2023/05/10 11:38:42;;;;;;;8.40;6.83;;;15.20;99.90;;;;;;5079004;28;20225;-51
2023/05/10 11:41:11;;;;;;;9.10;7.70;;;15.20;99.90;;;;;;5082835;28;20186;-49
2023/05/10 11:43:38;;;;;;;9.00;6.70;;;15.10;99.90;;;;;;5064533;28;20200;-53
2023/05/10 11:46:06;;;;;;;8.50;7.20;;;15.10;99.90;;;;;;5072080;28;20201;-53
2023/05/10 11:48:33;;;;;;;8.17;7.43;;;15.00;99.90;;;;;;5085010;28;20584;-55
2023/05/10 11:51:02;;;;;;;8.93;8.13;;;15.10;99.90;;;;;;5064396;28;20273;-56
2023/05/10 11:53:33;;;;;;;8.47;7.77;;;15.10;99.90;;;;;;5077276;28;20729;-49
2023/05/10 11:56:05;;;;;;;10.20;7.93;;;15.20;99.90;;;;;;5074021;28;20731;-51
2023/05/10 11:58:32;;;;;;;8.10;6.93;;;15.30;99.90;;;;;;5069071;28;20225;-53
2023/05/10 12:00:59;;;;;;;9.17;7.33;;;15.20;99.90;;;;;;5070686;28;20251;-54
2023/05/10 12:03:26;;;;;;;8.20;7.33;;;15.20;99.90;;;;;;5086434;28;20198;-46
2023/05/10 12:05:52;;;;;;;8.20;7.13;;;15.30;99.90;;;;;;5076943;28;20217;-52
2023/05/10 12:08:23;;;;;;;7.93;6.70;;;15.30;99.90;;;;;;5065255;28;21032;-48
2023/05/10 12:10:52;;;;;;;8.07;7.37;;;15.20;99.90;;;;;;5072310;28;20194;-55
2023/05/10 12:13:20;;;;;;;9.83;7.93;;;15.20;99.90;;;;;;5066515;28;20198;-55
2023/05/10 12:15:48;;;;;;;9.40;7.57;;;15.20;99.90;;;;;;5082081;28;20243;-54
2023/05/10 12:18:15;;;;;;;8.93;8.03;;;15.10;99.90;;;;;;5078113;28;20937;-45
2023/05/10 12:20:42;;;;;;;9.83;8.83;;;15.10;99.90;;;;;;5082554;28;20205;-54
2023/05/10 12:23:10;;;;;;;10.20;9.30;;;15.00;99.90;;;;;;5061264;28;20198;-51
2023/05/10 12:25:38;;;;;;;10.07;9.07;;;15.10;99.90;;;;;;5062830;28;20221;-48
2023/05/10 12:28:08;;;;;;;9.50;8.60;;;15.10;99.90;;;;;;5068314;28;20185;-47
2023/05/10 12:30:36;;;;;;;11.73;10.50;;;15.20;99.90;;;;;;5074469;28;20206;-45
2023/05/10 12:33:07;;;;;;;10.40;9.40;;;15.30;99.90;;;;;;5074858;28;20198;-48
2023/05/10 12:35:45;;;;;;;12.13;9.63;;;15.30;99.90;;;;;;5081591;28;20190;-46
2023/05/10 12:38:26;;;;;;;10.20;9.27;;;15.30;99.90;;;;;;5060091;28;20324;-51
2023/05/10 12:40:53;;;;;;;10.20;9.20;;;15.40;99.90;;;;;;5062907;28;20201;-53
2023/05/10 12:43:22;;;;;;;10.53;9.20;;;15.40;99.90;;;;;;5081983;28;20293;-49
2023/05/10 12:45:48;;;;;;;10.17;8.83;;;15.40;99.90;;;;;;5068724;28;20214;-55
2023/05/10 12:48:15;;;;;;;9.67;8.77;;;15.40;99.90;;;;;;5075261;28;20229;-54
2023/05/10 12:50:42;;;;;;;11.97;9.00;;;15.50;99.90;;;;;;5077824;28;20175;-48
2023/05/10 12:53:08;;;;;;;10.30;9.40;;;15.50;99.90;;;;;;5064688;28;20548;-53
2023/05/10 12:55:35;;;;;;;8.93;8.13;;;15.60;99.90;;;;;;5054607;28;20347;-46
2023/05/10 12:58:02;;;;;;;8.33;7.53;;;15.60;99.90;;;;;;5065657;28;20202;-55